createdAt,value
2023-05-14T00:01:12.883Z,4.93
2023-05-14T00:03:42.582Z,4.90
2023-05-14T00:06:11.262Z,4.73
2023-05-14T00:08:39.510Z,4.87
2023-05-14T00:11:09.030Z,4.63
2023-05-14T00:13:37.623Z,5.70
2023-05-14T00:16:06.516Z,5.50
2023-05-14T00:18:34.926Z,5.33
2023-05-14T00:21:04.815Z,5.50
2023-05-14T00:23:33.097Z,5.63
2023-05-14T00:26:01.418Z,5.40
2023-05-14T00:28:29.733Z,5.17
2023-05-14T00:30:58.043Z,5.60
2023-05-14T00:33:26.337Z,5.73
2023-05-14T00:35:54.816Z,6.07
2023-05-14T00:38:27.698Z,5.73
2023-05-14T00:40:56.091Z,5.80
2023-05-14T00:43:25.258Z,5.90
2023-05-14T00:45:54.934Z,6.10
2023-05-14T00:48:24.318Z,7.20
2023-05-14T00:50:53.054Z,6.50
2023-05-14T00:53:22.141Z,6.70
2023-05-14T00:55:52.074Z,7.40
2023-05-14T00:58:21.028Z,7.70
2023-05-14T01:00:49.408Z,7.60
2023-05-14T01:03:17.854Z,7.87
2023-05-14T01:05:56.406Z,8.27
2023-05-14T01:08:32.924Z,8.93
2023-05-14T01:11:07.937Z,10.50
2023-05-14T01:13:46.456Z,11.60
2023-05-14T01:16:17.107Z,12.50
2023-05-14T01:18:47.735Z,12.30
2023-05-14T01:21:37.200Z,11.60
2023-05-14T01:24:06.147Z,10.70
2023-05-14T01:26:34.670Z,10.87
2023-05-14T01:29:09.525Z,10.83
2023-05-14T01:31:40.995Z,10.60
2023-05-14T01:34:12.595Z,10.50
2023-05-14T01:36:43.205Z,12.00
2023-05-14T01:39:13.109Z,12.17
2023-05-14T01:41:42.929Z,12.13
2023-05-14T01:44:11.664Z,13.87
2023-05-14T01:46:40.241Z,14.27
2023-05-14T01:49:08.680Z,14.73
2023-05-14T01:51:37.873Z,13.20
2023-05-14T01:54:07.628Z,13.77
2023-05-14T01:56:35.926Z,14.50
2023-05-14T01:59:04.260Z,14.80
2023-05-14T02:01:33.950Z,14.27
2023-05-14T02:04:02.532Z,15.03
2023-05-14T02:06:31.687Z,15.87
2023-05-14T02:09:00.172Z,15.60
2023-05-14T02:11:30.595Z,16.87
2023-05-14T02:13:58.924Z,15.90
2023-05-14T02:16:27.476Z,14.50
2023-05-14T02:18:55.961Z,17.90
2023-05-14T02:21:24.419Z,18.70
2023-05-14T02:23:52.811Z,18.70
2023-05-14T02:26:21.495Z,19.57
2023-05-14T02:28:51.279Z,22.33
2023-05-14T02:31:20.364Z,21.57
2023-05-14T02:33:48.762Z,20.47
2023-05-14T02:36:17.103Z,21.33
2023-05-14T02:38:46.054Z,20.53
2023-05-14T02:41:14.326Z,20.70
2023-05-14T02:43:42.627Z,21.20
2023-05-14T02:46:12.397Z,19.37
2023-05-14T02:48:40.956Z,19.00
2023-05-14T02:51:09.580Z,17.70
2023-05-14T02:53:37.887Z,18.93
2023-05-14T02:56:06.740Z,16.60
2023-05-14T02:58:35.135Z,16.40
2023-05-14T03:01:03.633Z,14.60
2023-05-14T03:03:34.144Z,16.73
2023-05-14T03:06:03.080Z,15.87
2023-05-14T03:08:31.461Z,17.17
2023-05-14T03:10:59.802Z,15.53
2023-05-14T03:13:28.113Z,14.93
2023-05-14T03:15:57.052Z,15.60
2023-05-14T03:18:25.496Z,16.70
2023-05-14T03:20:55.327Z,15.97
2023-05-14T03:23:23.701Z,15.90
2023-05-14T03:25:53.664Z,17.80
2023-05-14T03:28:22.015Z,16.30
2023-05-14T03:30:50.450Z,18.50
2023-05-14T03:33:18.888Z,17.97
2023-05-14T03:35:47.182Z,17.50
2023-05-14T03:38:16.932Z,20.63
2023-05-14T03:40:48.498Z,19.27
2023-05-14T03:43:17.454Z,20.10
2023-05-14T03:45:46.194Z,20.30
2023-05-14T03:48:14.637Z,20.40
2023-05-14T03:50:43.391Z,21.63
2023-05-14T03:53:11.813Z,21.00
2023-05-14T03:55:41.542Z,22.17
2023-05-14T03:58:14.316Z,22.90
2023-05-14T04:00:43.192Z,20.97
2023-05-14T04:03:12.949Z,22.20
2023-05-14T04:05:41.392Z,21.33
2023-05-14T04:08:09.742Z,22.67
2023-05-14T04:10:38.139Z,21.20
2023-05-14T04:13:07.796Z,20.23
2023-05-14T04:15:39.388Z,18.70
2023-05-14T04:18:07.927Z,18.43
2023-05-14T04:20:36.946Z,17.40
2023-05-14T04:23:05.437Z,15.77
2023-05-14T04:25:33.717Z,13.70
2023-05-14T04:28:02.023Z,14.13
2023-05-14T04:30:31.738Z,13.93
2023-05-14T04:33:00.056Z,15.13
2023-05-14T04:35:28.430Z,14.40
2023-05-14T04:37:56.710Z,15.37
2023-05-14T04:40:25.181Z,15.20
2023-05-14T04:42:53.665Z,14.27
2023-05-14T04:45:22.146Z,12.57
2023-05-14T04:47:52.202Z,12.73
2023-05-14T04:50:20.688Z,13.20
2023-05-14T04:52:49.077Z,13.53
2023-05-14T04:55:17.476Z,12.83
2023-05-14T04:57:45.820Z,13.53
2023-05-14T05:00:14.993Z,12.40
2023-05-14T05:02:43.345Z,12.73
2023-05-14T05:05:13.182Z,12.10
2023-05-14T05:07:41.514Z,10.30
2023-05-14T05:10:10.607Z,11.17
2023-05-14T05:12:38.957Z,10.10
2023-05-14T05:15:09.510Z,9.57
2023-05-14T05:17:38.127Z,10.53
2023-05-14T05:20:09.718Z,9.33
2023-05-14T05:22:39.405Z,9.40
2023-05-14T05:25:09.183Z,9.00
2023-05-14T05:27:37.540Z,9.50
2023-05-14T05:30:07.417Z,9.83
2023-05-14T05:32:36.238Z,10.00
2023-05-14T05:35:05.088Z,10.13
2023-05-14T05:37:33.449Z,9.50
2023-05-14T05:40:04.443Z,10.20
2023-05-14T05:42:32.760Z,10.70
2023-05-14T05:45:01.071Z,9.90
2023-05-14T05:47:30.148Z,9.40
2023-05-14T05:49:58.491Z,10.00
2023-05-14T05:52:27.010Z,10.50
2023-05-14T05:54:55.364Z,10.33
2023-05-14T05:57:27.193Z,9.33
2023-05-14T05:59:55.601Z,9.80
2023-05-14T06:02:25.127Z,8.67
2023-05-14T06:04:53.848Z,9.57
2023-05-14T06:07:22.170Z,9.30
2023-05-14T06:09:50.523Z,9.70
2023-05-14T06:12:18.795Z,9.13
2023-05-14T06:14:48.438Z,9.03
2023-05-14T06:17:16.789Z,9.70
2023-05-14T06:19:45.202Z,8.80
2023-05-14T06:22:14.800Z,8.63
2023-05-14T06:24:43.089Z,8.17
2023-05-14T06:27:11.868Z,7.63
2023-05-14T06:29:40.431Z,8.83
2023-05-14T06:32:10.571Z,7.60
2023-05-14T06:34:38.976Z,7.83
2023-05-14T06:37:07.309Z,7.70
2023-05-14T06:39:35.637Z,7.60
2023-05-14T06:42:04.343Z,7.40
2023-05-14T06:44:32.874Z,7.80
2023-05-14T06:47:01.449Z,7.40
2023-05-14T06:49:31.112Z,6.60
2023-05-14T06:51:59.383Z,6.53
2023-05-14T06:54:27.706Z,6.63
2023-05-14T06:56:55.977Z,7.50
2023-05-14T06:59:24.488Z,7.73
2023-05-14T07:01:53.092Z,7.10
2023-05-14T07:04:21.588Z,7.30
2023-05-14T07:06:51.366Z,6.80
2023-05-14T07:09:19.976Z,6.83
2023-05-14T07:11:48.275Z,7.13
2023-05-14T07:14:16.609Z,7.10
2023-05-14T07:16:46.942Z,6.60
2023-05-14T07:19:15.494Z,6.63
2023-05-14T07:21:43.951Z,7.17
2023-05-14T07:24:13.673Z,6.40
2023-05-14T07:26:42.046Z,5.60
2023-05-14T07:29:10.437Z,6.70
2023-05-14T07:31:38.884Z,7.07
2023-05-14T07:34:08.575Z,6.57
2023-05-14T07:36:36.889Z,6.20
2023-05-14T07:39:05.275Z,6.23
2023-05-14T07:41:35.086Z,5.53
2023-05-14T07:44:03.529Z,5.40
2023-05-14T07:46:31.972Z,4.70
2023-05-14T07:49:00.486Z,4.77
2023-05-14T07:51:29.313Z,4.77
2023-05-14T07:53:57.660Z,4.43
2023-05-14T07:56:26.121Z,4.60
2023-05-14T07:58:56.568Z,3.93
2023-05-14T08:01:25.202Z,3.57
2023-05-14T08:03:53.768Z,3.97
2023-05-14T08:06:22.873Z,4.23
2023-05-14T08:08:51.184Z,3.97
2023-05-14T08:11:19.503Z,4.00
2023-05-14T08:13:47.869Z,3.60
2023-05-14T08:16:17.589Z,4.07
2023-05-14T08:18:46.041Z,3.30
2023-05-14T08:21:14.370Z,4.07
2023-05-14T08:23:42.747Z,4.10
2023-05-14T08:26:11.163Z,3.33
2023-05-14T08:28:39.455Z,3.13
2023-05-14T08:31:07.803Z,3.00
2023-05-14T08:33:37.490Z,2.87
2023-05-14T08:36:07.271Z,2.70
2023-05-14T08:38:35.623Z,2.70
2023-05-14T08:41:07.326Z,3.00
2023-05-14T08:43:45.223Z,3.10
2023-05-14T08:46:15.428Z,2.57
2023-05-14T08:48:53.032Z,3.00
2023-05-14T08:51:21.419Z,2.50
2023-05-14T08:53:49.821Z,2.37
2023-05-14T08:56:19.934Z,2.40
2023-05-14T08:58:48.378Z,2.60
2023-05-14T09:01:16.718Z,2.30
2023-05-14T09:03:47.010Z,2.20
2023-05-14T09:06:15.618Z,2.10
2023-05-14T09:08:44.076Z,2.10
2023-05-14T09:11:12.678Z,2.30
2023-05-14T09:13:41.091Z,2.43
2023-05-14T09:16:09.456Z,2.40
2023-05-14T09:18:38.174Z,1.97
2023-05-14T09:21:09.814Z,1.73
2023-05-14T09:23:43.178Z,1.90
2023-05-14T09:26:11.554Z,2.13
2023-05-14T09:28:42.545Z,2.33
2023-05-14T09:31:12.224Z,2.47
2023-05-14T09:33:41.302Z,2.43
2023-05-14T09:36:11.096Z,3.00
2023-05-14T09:38:39.441Z,2.80
2023-05-14T09:41:07.758Z,3.27
2023-05-14T09:43:36.091Z,2.80
2023-05-14T09:46:04.459Z,3.07
2023-05-14T09:48:32.779Z,3.20
2023-05-14T09:51:02.757Z,4.07
2023-05-14T09:53:34.347Z,3.23
2023-05-14T09:56:02.738Z,3.87
2023-05-14T09:58:31.295Z,7.37
2023-05-14T10:00:59.820Z,6.73
2023-05-14T10:03:29.679Z,4.37
2023-05-14T10:06:03.266Z,4.50
2023-05-14T10:08:36.766Z,3.60
2023-05-14T10:11:09.462Z,4.80
2023-05-14T10:13:40.981Z,4.43
2023-05-14T10:16:14.976Z,4.07
2023-05-14T10:18:48.643Z,3.80
2023-05-14T10:21:19.544Z,4.60
2023-05-14T10:23:50.304Z,4.83
2023-05-14T10:26:18.893Z,12.80
2023-05-14T10:28:47.485Z,5.43
2023-05-14T10:31:15.900Z,5.80
2023-05-14T10:33:51.874Z,4.93
2023-05-14T10:36:22.271Z,4.93
2023-05-14T10:38:57.962Z,5.20
2023-05-14T10:41:26.412Z,5.10
2023-05-14T10:43:54.820Z,12.73
2023-05-14T10:46:23.164Z,15.90
2023-05-14T10:48:51.899Z,7.10
2023-05-14T10:51:22.990Z,6.60
2023-05-14T10:53:53.607Z,6.90
2023-05-14T10:56:22.317Z,6.90
2023-05-14T10:58:51.623Z,7.17
2023-05-14T11:01:20.040Z,6.60
2023-05-14T11:03:48.595Z,6.67
2023-05-14T11:06:17.358Z,6.47
2023-05-14T11:08:46.620Z,6.40
2023-05-14T11:11:19.222Z,6.03
2023-05-14T11:13:47.745Z,6.73
2023-05-14T11:16:23.475Z,5.60
2023-05-14T11:19:03.516Z,10.60
2023-05-14T11:21:32.582Z,7.73
2023-05-14T11:24:01.578Z,8.43
2023-05-14T11:26:33.165Z,6.57
2023-05-14T11:29:01.660Z,4.80
2023-05-14T11:31:30.105Z,3.97
2023-05-14T11:33:58.466Z,4.87
2023-05-14T11:36:26.786Z,3.83
2023-05-14T11:38:55.108Z,4.70
2023-05-14T11:41:23.571Z,4.03
2023-05-14T11:43:53.359Z,4.40
2023-05-14T11:46:21.930Z,4.40
2023-05-14T11:48:50.371Z,4.50
2023-05-14T11:51:18.672Z,4.00
2023-05-14T11:53:47.969Z,3.77
2023-05-14T11:56:16.458Z,4.20
2023-05-14T11:58:49.696Z,3.80
2023-05-14T12:01:19.553Z,3.77
2023-05-14T12:03:48.133Z,3.60
2023-05-14T12:06:16.558Z,3.20
2023-05-14T12:08:44.863Z,3.30
2023-05-14T12:11:13.158Z,2.90
2023-05-14T12:13:41.708Z,3.07
2023-05-14T12:16:10.524Z,2.70
2023-05-14T12:18:40.356Z,2.87
2023-05-14T12:21:09.155Z,2.67
2023-05-14T12:23:40.022Z,2.80
2023-05-14T12:26:09.477Z,3.17
2023-05-14T12:28:43.336Z,2.93
2023-05-14T12:31:13.132Z,2.80
2023-05-14T12:33:42.904Z,2.87
2023-05-14T12:36:21.167Z,2.90
2023-05-14T12:38:50.965Z,3.00
2023-05-14T12:41:20.001Z,3.27
2023-05-14T12:43:50.277Z,2.70
2023-05-14T12:46:18.818Z,2.70
2023-05-14T12:48:49.259Z,3.17
2023-05-14T12:51:18.748Z,4.07
2023-05-14T12:53:47.529Z,4.30
2023-05-14T12:56:16.079Z,3.80
2023-05-14T12:58:44.375Z,4.07
2023-05-14T13:01:12.691Z,4.37
2023-05-14T13:03:41.142Z,4.07
2023-05-14T13:06:11.079Z,2.90
2023-05-14T13:08:40.958Z,2.90
2023-05-14T13:11:10.409Z,3.07
2023-05-14T13:13:38.673Z,2.67
2023-05-14T13:16:07.696Z,2.90
2023-05-14T13:18:37.226Z,2.93
2023-05-14T13:21:06.473Z,3.00
2023-05-14T13:23:36.129Z,2.50
2023-05-14T13:26:04.600Z,2.93
2023-05-14T13:28:32.917Z,3.20
2023-05-14T13:31:07.947Z,4.13
2023-05-14T13:33:37.936Z,3.70
2023-05-14T13:36:06.931Z,8.87
2023-05-14T13:38:36.685Z,6.50
2023-05-14T13:41:05.207Z,3.50
2023-05-14T13:43:34.827Z,2.33
2023-05-14T13:46:04.614Z,1.90
2023-05-14T13:48:33.241Z,2.07
2023-05-14T13:51:01.596Z,2.00
2023-05-14T13:53:30.540Z,1.93
2023-05-14T13:56:01.741Z,1.73
2023-05-14T13:58:30.174Z,2.27
2023-05-14T14:00:58.606Z,2.33
2023-05-14T14:03:27.004Z,2.20
2023-05-14T14:05:55.592Z,1.70
2023-05-14T14:08:24.647Z,1.90
2023-05-14T14:10:55.300Z,1.90
2023-05-14T14:13:25.287Z,1.93
2023-05-14T14:15:53.815Z,1.80
2023-05-14T14:18:22.162Z,1.80
2023-05-14T14:20:50.792Z,2.03
2023-05-14T14:23:19.693Z,2.17
2023-05-14T14:25:48.177Z,2.10
2023-05-14T14:28:16.523Z,1.90
2023-05-14T14:30:46.348Z,2.40
2023-05-14T14:33:14.918Z,2.03
2023-05-14T14:35:43.561Z,1.90
2023-05-14T14:38:12.556Z,2.03
2023-05-14T14:40:40.891Z,2.30
2023-05-14T14:43:09.418Z,2.00
2023-05-14T14:45:37.956Z,2.20
2023-05-14T14:48:28.485Z,2.23
2023-05-14T14:50:57.014Z,2.27
2023-05-14T14:53:25.878Z,2.03
2023-05-14T14:55:55.050Z,1.97
2023-05-14T14:58:23.666Z,2.20
2023-05-14T15:00:54.124Z,2.40
2023-05-14T15:03:22.936Z,2.17
2023-05-14T15:05:53.603Z,2.17
2023-05-14T15:08:26.181Z,2.43
2023-05-14T15:10:54.586Z,2.30
2023-05-14T15:13:22.994Z,2.20
2023-05-14T15:15:52.831Z,2.73
2023-05-14T15:18:21.312Z,2.37
2023-05-14T15:20:49.692Z,2.40
2023-05-14T15:23:19.915Z,2.90
2023-05-14T15:25:49.437Z,2.70
2023-05-14T15:28:17.838Z,3.37
2023-05-14T15:30:48.339Z,2.50
2023-05-14T15:33:19.117Z,2.73
2023-05-14T15:35:47.590Z,2.80
2023-05-14T15:38:15.975Z,2.67
2023-05-14T15:40:45.662Z,3.37
2023-05-14T15:43:13.964Z,2.93
2023-05-14T15:45:42.230Z,2.47
2023-05-14T15:48:10.631Z,2.20
2023-05-14T15:50:39.534Z,2.20
2023-05-14T15:53:07.882Z,2.70
2023-05-14T15:55:36.224Z,2.50
2023-05-14T15:58:06.326Z,2.13
2023-05-14T16:00:34.703Z,1.90
2023-05-14T16:03:03.133Z,1.90
2023-05-14T16:05:31.640Z,2.00
2023-05-14T16:08:00.307Z,1.97
2023-05-14T16:10:28.597Z,2.10
2023-05-14T16:12:56.930Z,2.00
2023-05-14T16:15:26.675Z,2.07
2023-05-14T16:17:55.016Z,2.10
2023-05-14T16:20:24.203Z,2.20
2023-05-14T16:22:52.730Z,2.70
2023-05-14T16:25:21.068Z,2.17
2023-05-14T16:27:49.364Z,2.80
2023-05-14T16:30:17.821Z,2.13
2023-05-14T16:32:49.574Z,2.40
2023-05-14T16:35:18.027Z,2.47
2023-05-14T16:37:46.407Z,2.47
2023-05-14T16:40:16.244Z,2.23
2023-05-14T16:42:46.053Z,2.47
2023-05-14T16:45:15.602Z,2.90
2023-05-14T16:47:43.945Z,2.00
2023-05-14T16:50:13.872Z,2.60
2023-05-14T16:52:42.303Z,2.03
2023-05-14T16:55:11.002Z,2.20
2023-05-14T16:57:43.717Z,2.20
2023-05-14T17:00:13.461Z,2.33
2023-05-14T17:02:42.019Z,2.23
2023-05-14T17:05:11.006Z,2.70
2023-05-14T17:07:41.286Z,3.07
2023-05-14T17:10:10.731Z,2.97
2023-05-14T17:12:39.108Z,2.40
2023-05-14T17:15:08.874Z,2.47
2023-05-14T17:17:37.287Z,2.50
2023-05-14T17:20:06.831Z,1.97
2023-05-14T17:22:35.572Z,2.30
2023-05-14T17:25:06.283Z,1.90
2023-05-14T17:27:34.637Z,2.10
2023-05-14T17:30:03.489Z,2.40
2023-05-14T17:32:33.992Z,2.20
2023-05-14T17:35:02.774Z,2.60
2023-05-14T17:37:33.462Z,2.17
2023-05-14T17:40:01.777Z,2.60
2023-05-14T17:42:31.555Z,2.53
2023-05-14T17:44:59.949Z,2.50
2023-05-14T17:47:28.455Z,3.13
2023-05-14T17:49:56.760Z,3.70
2023-05-14T17:52:25.088Z,3.27
2023-05-14T17:54:53.437Z,3.60
2023-05-14T17:57:22.784Z,3.40
2023-05-14T17:59:52.468Z,3.57
2023-05-14T18:02:20.833Z,3.60
2023-05-14T18:04:49.162Z,3.37
2023-05-14T18:07:18.772Z,3.20
2023-05-14T18:09:47.115Z,4.50
2023-05-14T18:12:15.537Z,5.20
2023-05-14T18:14:45.441Z,6.00
2023-05-14T18:17:15.570Z,5.10
2023-05-14T18:19:44.103Z,3.73
2023-05-14T18:22:12.375Z,3.50
2023-05-14T18:24:40.780Z,6.20
2023-05-14T18:27:09.841Z,8.10
2023-05-14T18:29:38.148Z,5.60
2023-05-14T18:32:07.320Z,5.20
2023-05-14T18:34:37.072Z,5.43
2023-05-14T18:37:05.449Z,4.17
2023-05-14T18:39:33.763Z,3.40
2023-05-14T18:42:02.282Z,3.17
2023-05-14T18:44:31.012Z,3.10
2023-05-14T18:47:00.433Z,3.50
2023-05-14T18:49:28.770Z,2.93
2023-05-14T18:51:58.434Z,2.90
2023-05-14T18:54:26.761Z,3.27
2023-05-14T18:56:55.525Z,3.10
2023-05-14T18:59:23.906Z,4.03
2023-05-14T19:01:52.402Z,3.60
2023-05-14T19:04:21.135Z,3.33
2023-05-14T19:06:49.567Z,4.60
2023-05-14T19:09:21.142Z,3.90
2023-05-14T19:11:49.797Z,4.30
2023-05-14T19:14:18.232Z,4.20
2023-05-14T19:16:46.653Z,4.53
2023-05-14T19:19:15.184Z,5.57
2023-05-14T19:21:43.640Z,4.63
2023-05-14T19:24:12.200Z,3.90
2023-05-14T19:26:42.022Z,3.30
2023-05-14T19:29:10.494Z,3.90
2023-05-14T19:31:39.154Z,3.63
2023-05-14T19:34:07.683Z,4.23
2023-05-14T19:36:36.225Z,3.73
2023-05-14T19:39:04.636Z,4.33
2023-05-14T19:41:33.012Z,4.10
2023-05-14T19:44:02.810Z,4.03
2023-05-14T19:46:31.352Z,4.00
2023-05-14T19:48:59.793Z,4.37
2023-05-14T19:51:28.215Z,4.47
2023-05-14T19:53:56.588Z,4.20
2023-05-14T19:56:27.134Z,4.03
2023-05-14T19:58:55.936Z,4.07
2023-05-14T20:01:26.813Z,4.47
2023-05-14T20:03:55.208Z,4.30
2023-05-14T20:06:23.520Z,4.50
2023-05-14T20:08:52.150Z,4.33
2023-05-14T20:11:21.583Z,4.40
2023-05-14T20:13:50.004Z,5.13
2023-05-14T20:16:18.728Z,4.90
2023-05-14T20:18:48.678Z,4.80
2023-05-14T20:21:17.066Z,5.30
2023-05-14T20:23:45.480Z,4.67
2023-05-14T20:26:13.810Z,4.60
2023-05-14T20:28:43.456Z,4.57
2023-05-14T20:31:11.830Z,4.70
2023-05-14T20:33:40.135Z,5.07
2023-05-14T20:36:09.969Z,4.67
2023-05-14T20:38:38.327Z,4.60
2023-05-14T20:41:07.022Z,4.97
2023-05-14T20:43:35.345Z,5.10
2023-05-14T20:46:05.806Z,4.67
2023-05-14T20:48:34.154Z,5.40
2023-05-14T20:51:04.883Z,4.70
2023-05-14T20:53:39.196Z,4.33
2023-05-14T20:56:07.809Z,4.93
2023-05-14T20:58:36.475Z,3.93
2023-05-14T21:01:07.907Z,5.27
2023-05-14T21:03:36.407Z,4.60
2023-05-14T21:06:05.116Z,4.73
2023-05-14T21:08:35.459Z,5.30
2023-05-14T21:11:03.809Z,5.50
2023-05-14T21:13:32.118Z,5.93
2023-05-14T21:16:00.948Z,5.33
2023-05-14T21:18:32.745Z,4.90
2023-05-14T21:21:01.218Z,5.10
2023-05-14T21:23:29.574Z,5.30
2023-05-14T21:25:59.282Z,5.37
2023-05-14T21:28:27.598Z,5.53
2023-05-14T21:30:55.916Z,5.53
2023-05-14T21:33:24.448Z,5.17
2023-05-14T21:35:52.811Z,5.50
2023-05-14T21:38:21.462Z,5.30
2023-05-14T21:40:49.832Z,5.37
2023-05-14T21:43:19.531Z,5.77
2023-05-14T21:45:48.032Z,5.30
2023-05-14T21:48:16.474Z,5.80
2023-05-14T21:50:44.861Z,5.93
2023-05-14T21:53:13.323Z,5.80
2023-05-14T21:55:41.766Z,7.40
2023-05-14T21:58:10.131Z,5.53
2023-05-14T22:00:39.849Z,5.23
2023-05-14T22:03:08.311Z,4.60
2023-05-14T22:05:36.724Z,5.00
2023-05-14T22:08:05.807Z,4.90
2023-05-14T22:10:35.418Z,5.13
2023-05-14T22:13:03.717Z,4.57
2023-05-14T22:15:32.181Z,4.80
2023-05-14T22:18:03.119Z,4.80
2023-05-14T22:20:31.457Z,5.13
2023-05-14T22:22:59.791Z,4.40
2023-05-14T22:25:28.225Z,4.40
2023-05-14T22:27:56.575Z,4.30
2023-05-14T22:30:24.998Z,3.80
2023-05-14T22:32:53.571Z,3.90
2023-05-14T22:35:23.340Z,4.80
2023-05-14T22:37:51.785Z,4.53
2023-05-14T22:40:20.307Z,5.43
2023-05-14T22:42:48.582Z,4.40
2023-05-14T22:45:16.954Z,4.50
2023-05-14T22:47:45.225Z,4.60
2023-05-14T22:50:13.532Z,4.00
2023-05-14T22:52:43.185Z,3.37
2023-05-14T22:55:11.710Z,3.20
2023-05-14T22:57:40.350Z,2.90
2023-05-14T23:00:10.040Z,3.00
2023-05-14T23:02:39.393Z,3.13
2023-05-14T23:05:09.122Z,3.73
2023-05-14T23:07:37.626Z,3.37
2023-05-14T23:10:08.255Z,3.27
2023-05-14T23:12:36.596Z,2.93
2023-05-14T23:15:05.354Z,3.40
2023-05-14T23:17:33.884Z,2.90
2023-05-14T23:20:02.278Z,3.13
2023-05-14T23:22:30.605Z,3.43
2023-05-14T23:24:58.866Z,3.47
2023-05-14T23:27:29.056Z,2.70
2023-05-14T23:29:57.448Z,2.50
2023-05-14T23:32:25.917Z,2.53
2023-05-14T23:34:54.350Z,2.50
2023-05-14T23:37:22.732Z,2.10
2023-05-14T23:39:51.442Z,1.87
2023-05-14T23:42:20.176Z,1.83
2023-05-14T23:44:50.282Z,2.10
2023-05-14T23:47:18.930Z,2.23
2023-05-14T23:49:47.350Z,2.33
2023-05-14T23:52:15.878Z,2.20
2023-05-14T23:54:44.223Z,2.17
2023-05-14T23:57:14.532Z,2.10
2023-05-14T23:59:42.978Z,2.30
